sensor_id;sensor_type;location;lat;lon;timestamp;P1;durP1;ratioP1;P2;durP2;ratioP2
52266;SDS011;38223;50.940;4.034;2022-07-29T00:00:48;2.55;;;1.40;;
52266;SDS011;38223;50.940;4.034;2022-07-29T00:03:21;3.58;;;1.30;;
52266;SDS011;38223;50.940;4.034;2022-07-29T00:05:55;4.67;;;1.10;;
52266;SDS011;38223;50.940;4.034;2022-07-29T00:08:25;3.37;;;1.70;;
52266;SDS011;38223;50.940;4.034;2022-07-29T00:11:02;4.92;;;1.90;;
52266;SDS011;38223;50.940;4.034;2022-07-29T00:13:34;2.42;;;1.20;;
52266;SDS011;38223;50.940;4.034;2022-07-29T00:16:05;1.87;;;1.10;;
52266;SDS011;38223;50.940;4.034;2022-07-29T00:18:37;4.87;;;1.30;;
52266;SDS011;38223;50.940;4.034;2022-07-29T00:21:07;5.90;;;1.70;;
52266;SDS011;38223;50.940;4.034;2022-07-29T00:26:08;4.05;;;1.40;;
52266;SDS011;38223;50.940;4.034;2022-07-29T00:28:40;4.85;;;1.62;;
52266;SDS011;38223;50.940;4.034;2022-07-29T00:31:10;3.95;;;1.20;;
52266;SDS011;38223;50.940;4.034;2022-07-29T00:36:12;3.65;;;1.67;;
52266;SDS011;38223;50.940;4.034;2022-07-29T00:41:13;6.95;;;1.87;;
52266;SDS011;38223;50.940;4.034;2022-07-29T00:43:48;5.47;;;1.65;;
52266;SDS011;38223;50.940;4.034;2022-07-29T00:46:18;7.53;;;1.70;;
52266;SDS011;38223;50.940;4.034;2022-07-29T00:48:48;4.10;;;1.80;;
52266;SDS011;38223;50.940;4.034;2022-07-29T00:51:19;6.00;;;2.05;;
52266;SDS011;38223;50.940;4.034;2022-07-29T00:53:51;3.75;;;1.90;;
52266;SDS011;38223;50.940;4.034;2022-07-29T00:56:24;4.85;;;1.95;;
52266;SDS011;38223;50.940;4.034;2022-07-29T00:58:56;5.37;;;2.02;;
52266;SDS011;38223;50.940;4.034;2022-07-29T01:01:30;6.35;;;2.10;;
52266;SDS011;38223;50.940;4.034;2022-07-29T01:04:05;5.70;;;1.82;;
52266;SDS011;38223;50.940;4.034;2022-07-29T01:06:39;7.03;;;2.15;;
52266;SDS011;38223;50.940;4.034;2022-07-29T01:09:08;5.03;;;1.98;;
52266;SDS011;38223;50.940;4.034;2022-07-29T01:11:42;4.78;;;2.70;;
52266;SDS011;38223;50.940;4.034;2022-07-29T01:14:14;3.47;;;1.90;;
52266;SDS011;38223;50.940;4.034;2022-07-29T01:16:54;4.45;;;2.35;;
52266;SDS011;38223;50.940;4.034;2022-07-29T01:19:33;3.77;;;2.52;;
52266;SDS011;38223;50.940;4.034;2022-07-29T01:25:11;5.97;;;2.62;;
52266;SDS011;38223;50.940;4.034;2022-07-29T01:30:35;6.62;;;2.50;;
52266;SDS011;38223;50.940;4.034;2022-07-29T01:33:10;4.17;;;2.58;;
52266;SDS011;38223;50.940;4.034;2022-07-29T01:35:43;5.05;;;2.72;;
52266;SDS011;38223;50.940;4.034;2022-07-29T01:38:20;6.92;;;2.37;;
52266;SDS011;38223;50.940;4.034;2022-07-29T01:40:52;6.80;;;2.37;;
52266;SDS011;38223;50.940;4.034;2022-07-29T01:43:27;4.15;;;2.55;;
52266;SDS011;38223;50.940;4.034;2022-07-29T01:45:59;5.45;;;2.58;;
52266;SDS011;38223;50.940;4.034;2022-07-29T01:48:40;5.05;;;2.40;;
52266;SDS011;38223;50.940;4.034;2022-07-29T01:51:28;10.38;;;3.58;;
52266;SDS011;38223;50.940;4.034;2022-07-29T01:54:12;6.45;;;2.90;;
52266;SDS011;38223;50.940;4.034;2022-07-29T01:56:47;4.67;;;2.58;;
52266;SDS011;38223;50.940;4.034;2022-07-29T01:59:17;11.00;;;3.22;;
52266;SDS011;38223;50.940;4.034;2022-07-29T02:01:54;5.45;;;2.60;;
52266;SDS011;38223;50.940;4.034;2022-07-29T02:04:26;5.10;;;2.90;;
52266;SDS011;38223;50.940;4.034;2022-07-29T02:07:03;4.20;;;2.83;;
52266;SDS011;38223;50.940;4.034;2022-07-29T02:09:37;4.58;;;2.87;;
52266;SDS011;38223;50.940;4.034;2022-07-29T02:12:16;6.75;;;2.98;;
52266;SDS011;38223;50.940;4.034;2022-07-29T02:14:50;4.85;;;2.87;;
52266;SDS011;38223;50.940;4.034;2022-07-29T02:17:26;5.45;;;2.83;;
52266;SDS011;38223;50.940;4.034;2022-07-29T02:20:04;3.95;;;2.80;;
52266;SDS011;38223;50.940;4.034;2022-07-29T02:22:38;6.30;;;3.47;;
52266;SDS011;38223;50.940;4.034;2022-07-29T02:25:12;5.37;;;3.17;;
52266;SDS011;38223;50.940;4.034;2022-07-29T02:27:46;6.72;;;3.75;;
52266;SDS011;38223;50.940;4.034;2022-07-29T02:30:22;9.83;;;3.17;;
52266;SDS011;38223;50.940;4.034;2022-07-29T02:32:56;9.20;;;3.62;;
52266;SDS011;38223;50.940;4.034;2022-07-29T02:35:28;5.37;;;3.60;;
52266;SDS011;38223;50.940;4.034;2022-07-29T02:38:02;7.17;;;3.20;;
52266;SDS011;38223;50.940;4.034;2022-07-29T02:40:51;5.67;;;4.20;;
52266;SDS011;38223;50.940;4.034;2022-07-29T02:43:26;6.65;;;3.33;;
52266;SDS011;38223;50.940;4.034;2022-07-29T02:46:01;6.40;;;3.75;;
52266;SDS011;38223;50.940;4.034;2022-07-29T02:48:44;4.12;;;3.70;;
52266;SDS011;38223;50.940;4.034;2022-07-29T02:51:10;5.15;;;3.52;;
52266;SDS011;38223;50.940;4.034;2022-07-29T02:53:53;7.47;;;3.75;;
52266;SDS011;38223;50.940;4.034;2022-07-29T02:56:29;5.12;;;3.55;;
52266;SDS011;38223;50.940;4.034;2022-07-29T02:59:00;8.63;;;3.87;;
52266;SDS011;38223;50.940;4.034;2022-07-29T03:01:33;6.75;;;3.55;;
52266;SDS011;38223;50.940;4.034;2022-07-29T03:04:10;5.30;;;3.17;;
52266;SDS011;38223;50.940;4.034;2022-07-29T03:06:42;6.03;;;3.37;;
52266;SDS011;38223;50.940;4.034;2022-07-29T03:09:19;4.87;;;3.45;;
52266;SDS011;38223;50.940;4.034;2022-07-29T03:11:50;4.92;;;3.05;;
52266;SDS011;38223;50.940;4.034;2022-07-29T03:14:25;5.53;;;3.60;;
52266;SDS011;38223;50.940;4.034;2022-07-29T03:16:56;6.90;;;3.37;;
52266;SDS011;38223;50.940;4.034;2022-07-29T03:19:30;6.83;;;3.60;;
52266;SDS011;38223;50.940;4.034;2022-07-29T03:22:02;6.53;;;3.37;;
52266;SDS011;38223;50.940;4.034;2022-07-29T03:24:39;9.13;;;3.62;;
52266;SDS011;38223;50.940;4.034;2022-07-29T03:27:11;6.40;;;3.80;;
52266;SDS011;38223;50.940;4.034;2022-07-29T03:29:40;10.03;;;3.45;;
52266;SDS011;38223;50.940;4.034;2022-07-29T03:32:13;4.15;;;3.33;;
52266;SDS011;38223;50.940;4.034;2022-07-29T03:34:40;6.40;;;4.03;;
52266;SDS011;38223;50.940;4.034;2022-07-29T03:37:20;8.03;;;3.85;;
52266;SDS011;38223;50.940;4.034;2022-07-29T03:39:48;8.08;;;3.75;;
52266;SDS011;38223;50.940;4.034;2022-07-29T03:42:29;5.33;;;3.70;;
52266;SDS011;38223;50.940;4.034;2022-07-29T03:45:03;8.45;;;3.27;;
52266;SDS011;38223;50.940;4.034;2022-07-29T03:50:54;4.72;;;3.42;;
52266;SDS011;38223;50.940;4.034;2022-07-29T03:53:27;7.03;;;3.60;;
52266;SDS011;38223;50.940;4.034;2022-07-29T03:56:00;11.22;;;3.67;;
52266;SDS011;38223;50.940;4.034;2022-07-29T03:58:35;6.83;;;3.35;;
52266;SDS011;38223;50.940;4.034;2022-07-29T04:01:07;9.80;;;3.37;;
52266;SDS011;38223;50.940;4.034;2022-07-29T04:03:41;7.12;;;3.80;;
52266;SDS011;38223;50.940;4.034;2022-07-29T04:06:12;4.28;;;3.62;;
52266;SDS011;38223;50.940;4.034;2022-07-29T04:08:49;4.50;;;3.75;;
52266;SDS011;38223;50.940;4.034;2022-07-29T04:11:20;6.10;;;4.00;;
52266;SDS011;38223;50.940;4.034;2022-07-29T04:13:52;4.05;;;3.35;;
52266;SDS011;38223;50.940;4.034;2022-07-29T04:16:24;5.17;;;3.92;;
52266;SDS011;38223;50.940;4.034;2022-07-29T04:18:59;5.00;;;3.72;;
52266;SDS011;38223;50.940;4.034;2022-07-29T04:21:28;4.30;;;3.52;;
52266;SDS011;38223;50.940;4.034;2022-07-29T04:24:02;5.70;;;3.62;;
52266;SDS011;38223;50.940;4.034;2022-07-29T04:26:37;7.55;;;3.67;;
52266;SDS011;38223;50.940;4.034;2022-07-29T04:29:11;5.50;;;3.62;;
52266;SDS011;38223;50.940;4.034;2022-07-29T04:31:40;5.00;;;3.42;;
52266;SDS011;38223;50.940;4.034;2022-07-29T04:34:14;4.97;;;3.55;;
52266;SDS011;38223;50.940;4.034;2022-07-29T04:36:44;5.15;;;3.10;;
52266;SDS011;38223;50.940;4.034;2022-07-29T04:39:24;6.45;;;3.60;;
52266;SDS011;38223;50.940;4.034;2022-07-29T04:41:58;5.78;;;3.70;;
52266;SDS011;38223;50.940;4.034;2022-07-29T04:44:34;7.45;;;3.42;;
52266;SDS011;38223;50.940;4.034;2022-07-29T04:47:07;5.37;;;3.65;;
52266;SDS011;38223;50.940;4.034;2022-07-29T04:49:44;5.05;;;3.40;;
52266;SDS011;38223;50.940;4.034;2022-07-29T04:52:16;6.08;;;3.08;;
52266;SDS011;38223;50.940;4.034;2022-07-29T04:54:45;4.40;;;3.33;;
52266;SDS011;38223;50.940;4.034;2022-07-29T04:57:19;4.75;;;3.27;;
52266;SDS011;38223;50.940;4.034;2022-07-29T04:59:47;4.03;;;2.98;;
52266;SDS011;38223;50.940;4.034;2022-07-29T05:02:18;5.12;;;3.42;;
52266;SDS011;38223;50.940;4.034;2022-07-29T05:04:47;5.80;;;3.27;;
52266;SDS011;38223;50.940;4.034;2022-07-29T05:07:21;5.37;;;3.35;;
52266;SDS011;38223;50.940;4.034;2022-07-29T05:09:55;5.33;;;3.42;;
52266;SDS011;38223;50.940;4.034;2022-07-29T05:12:28;5.95;;;3.42;;
52266;SDS011;38223;50.940;4.034;2022-07-29T05:14:58;9.40;;;3.92;;
52266;SDS011;38223;50.940;4.034;2022-07-29T05:17:30;6.83;;;3.62;;
52266;SDS011;38223;50.940;4.034;2022-07-29T05:20:07;5.50;;;3.35;;
52266;SDS011;38223;50.940;4.034;2022-07-29T05:22:38;6.33;;;3.15;;
52266;SDS011;38223;50.940;4.034;2022-07-29T05:25:09;6.45;;;3.27;;
52266;SDS011;38223;50.940;4.034;2022-07-29T05:27:42;5.62;;;3.50;;
52266;SDS011;38223;50.940;4.034;2022-07-29T05:30:14;4.03;;;3.58;;
52266;SDS011;38223;50.940;4.034;2022-07-29T05:32:46;5.92;;;3.12;;
52266;SDS011;38223;50.940;4.034;2022-07-29T05:35:17;6.72;;;3.30;;
52266;SDS011;38223;50.940;4.034;2022-07-29T05:37:47;5.53;;;3.45;;
52266;SDS011;38223;50.940;4.034;2022-07-29T05:40:21;5.28;;;3.65;;
52266;SDS011;38223;50.940;4.034;2022-07-29T05:42:55;4.83;;;3.87;;
52266;SDS011;38223;50.940;4.034;2022-07-29T05:45:25;4.05;;;3.10;;
52266;SDS011;38223;50.940;4.034;2022-07-29T05:47:57;7.05;;;3.47;;
52266;SDS011;38223;50.940;4.034;2022-07-29T05:50:27;5.28;;;3.27;;
52266;SDS011;38223;50.940;4.034;2022-07-29T05:53:02;6.10;;;3.83;;
52266;SDS011;38223;50.940;4.034;2022-07-29T05:55:34;5.55;;;3.40;;
52266;SDS011;38223;50.940;4.034;2022-07-29T05:58:05;7.03;;;3.60;;
52266;SDS011;38223;50.940;4.034;2022-07-29T06:00:42;5.80;;;3.40;;
52266;SDS011;38223;50.940;4.034;2022-07-29T06:03:12;4.03;;;3.33;;
52266;SDS011;38223;50.940;4.034;2022-07-29T06:05:43;4.95;;;3.52;;
52266;SDS011;38223;50.940;4.034;2022-07-29T06:08:14;8.00;;;3.83;;
52266;SDS011;38223;50.940;4.034;2022-07-29T06:10:48;5.92;;;3.47;;
52266;SDS011;38223;50.940;4.034;2022-07-29T06:13:19;4.30;;;3.47;;
52266;SDS011;38223;50.940;4.034;2022-07-29T06:15:48;12.23;;;4.50;;
52266;SDS011;38223;50.940;4.034;2022-07-29T06:18:36;5.50;;;3.62;;
52266;SDS011;38223;50.940;4.034;2022-07-29T06:21:08;7.35;;;3.77;;
52266;SDS011;38223;50.940;4.034;2022-07-29T06:23:57;7.55;;;4.00;;
52266;SDS011;38223;50.940;4.034;2022-07-29T06:26:29;4.33;;;3.92;;
52266;SDS011;38223;50.940;4.034;2022-07-29T06:29:00;8.30;;;3.90;;
52266;SDS011;38223;50.940;4.034;2022-07-29T06:31:31;8.60;;;4.03;;
52266;SDS011;38223;50.940;4.034;2022-07-29T06:34:05;4.45;;;3.95;;
52266;SDS011;38223;50.940;4.034;2022-07-29T06:36:38;7.80;;;4.00;;
52266;SDS011;38223;50.940;4.034;2022-07-29T06:39:08;5.70;;;4.03;;
52266;SDS011;38223;50.940;4.034;2022-07-29T06:41:39;6.42;;;4.17;;
52266;SDS011;38223;50.940;4.034;2022-07-29T06:44:10;4.33;;;3.92;;
52266;SDS011;38223;50.940;4.034;2022-07-29T06:46:41;6.85;;;4.00;;
52266;SDS011;38223;50.940;4.034;2022-07-29T06:49:14;6.97;;;4.00;;
52266;SDS011;38223;50.940;4.034;2022-07-29T06:51:44;7.25;;;4.22;;
52266;SDS011;38223;50.940;4.034;2022-07-29T06:54:18;9.85;;;3.45;;
52266;SDS011;38223;50.940;4.034;2022-07-29T06:56:47;3.98;;;3.35;;
52266;SDS011;38223;50.940;4.034;2022-07-29T06:59:18;8.30;;;4.10;;
52266;SDS011;38223;50.940;4.034;2022-07-29T07:01:51;5.12;;;3.50;;
52266;SDS011;38223;50.940;4.034;2022-07-29T07:04:28;5.65;;;3.90;;
52266;SDS011;38223;50.940;4.034;2022-07-29T07:07:00;7.50;;;4.35;;
52266;SDS011;38223;50.940;4.034;2022-07-29T07:09:31;8.85;;;3.87;;
52266;SDS011;38223;50.940;4.034;2022-07-29T07:12:04;7.75;;;3.80;;
52266;SDS011;38223;50.940;4.034;2022-07-29T07:14:45;7.55;;;3.80;;
52266;SDS011;38223;50.940;4.034;2022-07-29T07:17:16;6.67;;;3.85;;
52266;SDS011;38223;50.940;4.034;2022-07-29T07:19:53;6.92;;;3.67;;
52266;SDS011;38223;50.940;4.034;2022-07-29T07:22:27;4.45;;;4.05;;
52266;SDS011;38223;50.940;4.034;2022-07-29T07:24:57;9.65;;;4.42;;
52266;SDS011;38223;50.940;4.034;2022-07-29T07:27:31;4.70;;;3.80;;
52266;SDS011;38223;50.940;4.034;2022-07-29T07:30:05;5.28;;;3.80;;
52266;SDS011;38223;50.940;4.034;2022-07-29T07:32:42;4.37;;;3.98;;
52266;SDS011;38223;50.940;4.034;2022-07-29T07:35:13;6.15;;;4.05;;
52266;SDS011;38223;50.940;4.034;2022-07-29T07:37:45;6.25;;;3.90;;
52266;SDS011;38223;50.940;4.034;2022-07-29T07:40:19;4.28;;;3.72;;
52266;SDS011;38223;50.940;4.034;2022-07-29T07:42:48;6.47;;;3.77;;
52266;SDS011;38223;50.940;4.034;2022-07-29T07:45:19;6.08;;;4.05;;
52266;SDS011;38223;50.940;4.034;2022-07-29T07:47:52;5.55;;;3.98;;
52266;SDS011;38223;50.940;4.034;2022-07-29T07:50:25;11.03;;;3.75;;
52266;SDS011;38223;50.940;4.034;2022-07-29T07:52:56;7.47;;;3.85;;
52266;SDS011;38223;50.940;4.034;2022-07-29T07:55:33;8.20;;;4.45;;
52266;SDS011;38223;50.940;4.034;2022-07-29T07:58:02;6.50;;;4.30;;
52266;SDS011;38223;50.940;4.034;2022-07-29T08:00:34;7.05;;;4.33;;
52266;SDS011;38223;50.940;4.034;2022-07-29T08:03:07;6.15;;;4.30;;
52266;SDS011;38223;50.940;4.034;2022-07-29T08:05:54;8.23;;;4.70;;
52266;SDS011;38223;50.940;4.034;2022-07-29T08:08:29;5.28;;;4.15;;
52266;SDS011;38223;50.940;4.034;2022-07-29T08:10:59;7.22;;;3.90;;
52266;SDS011;38223;50.940;4.034;2022-07-29T08:16:01;5.50;;;4.35;;
52266;SDS011;38223;50.940;4.034;2022-07-29T08:18:35;7.15;;;4.83;;
52266;SDS011;38223;50.940;4.034;2022-07-29T08:21:04;7.95;;;5.87;;
52266;SDS011;38223;50.940;4.034;2022-07-29T08:23:37;14.13;;;5.67;;
52266;SDS011;38223;50.940;4.034;2022-07-29T08:26:12;12.35;;;4.35;;
52266;SDS011;38223;50.940;4.034;2022-07-29T08:28:43;6.37;;;4.17;;
52266;SDS011;38223;50.940;4.034;2022-07-29T08:31:17;5.87;;;4.20;;
52266;SDS011;38223;50.940;4.034;2022-07-29T08:33:47;5.67;;;4.22;;
52266;SDS011;38223;50.940;4.034;2022-07-29T08:36:24;5.83;;;4.10;;
52266;SDS011;38223;50.940;4.034;2022-07-29T08:38:50;6.05;;;4.35;;
52266;SDS011;38223;50.940;4.034;2022-07-29T08:41:24;8.30;;;4.00;;
52266;SDS011;38223;50.940;4.034;2022-07-29T08:43:56;6.62;;;3.92;;
52266;SDS011;38223;50.940;4.034;2022-07-29T08:46:34;8.68;;;4.42;;
52266;SDS011;38223;50.940;4.034;2022-07-29T08:49:01;4.78;;;3.83;;
52266;SDS011;38223;50.940;4.034;2022-07-29T08:51:35;7.15;;;4.37;;
52266;SDS011;38223;50.940;4.034;2022-07-29T08:54:09;4.83;;;4.30;;
52266;SDS011;38223;50.940;4.034;2022-07-29T08:56:44;6.97;;;3.90;;
52266;SDS011;38223;50.940;4.034;2022-07-29T09:02:26;7.47;;;4.60;;
52266;SDS011;38223;50.940;4.034;2022-07-29T09:04:58;6.62;;;4.20;;
52266;SDS011;38223;50.940;4.034;2022-07-29T09:07:35;7.47;;;3.80;;
52266;SDS011;38223;50.940;4.034;2022-07-29T09:10:22;4.10;;;3.42;;
52266;SDS011;38223;50.940;4.034;2022-07-29T09:12:56;6.58;;;3.50;;
52266;SDS011;38223;50.940;4.034;2022-07-29T09:15:29;4.42;;;3.70;;
52266;SDS011;38223;50.940;4.034;2022-07-29T09:18:02;7.03;;;3.72;;
52266;SDS011;38223;50.940;4.034;2022-07-29T09:20:37;4.33;;;3.45;;
52266;SDS011;38223;50.940;4.034;2022-07-29T09:23:24;4.35;;;3.58;;
52266;SDS011;38223;50.940;4.034;2022-07-29T09:25:53;4.20;;;3.80;;
52266;SDS011;38223;50.940;4.034;2022-07-29T09:28:26;6.00;;;4.50;;
52266;SDS011;38223;50.940;4.034;2022-07-29T09:30:56;9.90;;;4.10;;
52266;SDS011;38223;50.940;4.034;2022-07-29T09:37:01;7.75;;;4.47;;
52266;SDS011;38223;50.940;4.034;2022-07-29T09:39:39;5.85;;;4.33;;
52266;SDS011;38223;50.940;4.034;2022-07-29T09:42:12;5.78;;;4.40;;
52266;SDS011;38223;50.940;4.034;2022-07-29T09:44:47;7.62;;;4.70;;
52266;SDS011;38223;50.940;4.034;2022-07-29T09:47:19;5.17;;;4.67;;
52266;SDS011;38223;50.940;4.034;2022-07-29T09:49:54;5.75;;;4.55;;
52266;SDS011;38223;50.940;4.034;2022-07-29T09:52:29;5.95;;;4.45;;
52266;SDS011;38223;50.940;4.034;2022-07-29T09:55:06;6.33;;;3.75;;
52266;SDS011;38223;50.940;4.034;2022-07-29T09:57:41;5.10;;;3.60;;
52266;SDS011;38223;50.940;4.034;2022-07-29T10:00:17;4.40;;;3.30;;
52266;SDS011;38223;50.940;4.034;2022-07-29T10:03:10;3.60;;;2.50;;
52266;SDS011;38223;50.940;4.034;2022-07-29T10:05:41;4.15;;;2.70;;
52266;SDS011;38223;50.940;4.034;2022-07-29T10:08:14;4.87;;;2.50;;
52266;SDS011;38223;50.940;4.034;2022-07-29T10:10:49;5.25;;;2.80;;
52266;SDS011;38223;50.940;4.034;2022-07-29T10:13:20;6.15;;;2.90;;
52266;SDS011;38223;50.940;4.034;2022-07-29T10:15:54;6.40;;;3.20;;
52266;SDS011;38223;50.940;4.034;2022-07-29T10:18:29;4.70;;;2.25;;
52266;SDS011;38223;50.940;4.034;2022-07-29T10:21:00;3.70;;;2.15;;
52266;SDS011;38223;50.940;4.034;2022-07-29T10:23:36;4.12;;;2.50;;
52266;SDS011;38223;50.940;4.034;2022-07-29T10:26:10;6.22;;;2.40;;
52266;SDS011;38223;50.940;4.034;2022-07-29T10:28:43;5.10;;;2.30;;
52266;SDS011;38223;50.940;4.034;2022-07-29T10:34:11;5.80;;;2.10;;
52266;SDS011;38223;50.940;4.034;2022-07-29T10:42:28;4.35;;;2.22;;
52266;SDS011;38223;50.940;4.034;2022-07-29T10:45:00;4.90;;;2.02;;
52266;SDS011;38223;50.940;4.034;2022-07-29T10:47:38;5.33;;;2.20;;
52266;SDS011;38223;50.940;4.034;2022-07-29T10:50:09;2.62;;;1.50;;
52266;SDS011;38223;50.940;4.034;2022-07-29T10:55:33;4.58;;;1.77;;
52266;SDS011;38223;50.940;4.034;2022-07-29T10:58:15;4.55;;;1.85;;
52266;SDS011;38223;50.940;4.034;2022-07-29T11:00:39;5.17;;;2.02;;
52266;SDS011;38223;50.940;4.034;2022-07-29T11:03:57;3.42;;;1.77;;
52266;SDS011;38223;50.940;4.034;2022-07-29T11:05:55;2.30;;;1.80;;
52266;SDS011;38223;50.940;4.034;2022-07-29T11:08:29;2.83;;;1.80;;
52266;SDS011;38223;50.940;4.034;2022-07-29T11:14:00;5.62;;;1.80;;
52266;SDS011;38223;50.940;4.034;2022-07-29T11:19:28;2.97;;;1.60;;
52266;SDS011;38223;50.940;4.034;2022-07-29T11:22:04;5.55;;;1.80;;
52266;SDS011;38223;50.940;4.034;2022-07-29T11:24:36;7.30;;;1.92;;
52266;SDS011;38223;50.940;4.034;2022-07-29T11:27:11;7.40;;;1.80;;
52266;SDS011;38223;50.940;4.034;2022-07-29T11:29:49;5.55;;;1.85;;
52266;SDS011;38223;50.940;4.034;2022-07-29T11:32:24;7.67;;;2.12;;
52266;SDS011;38223;50.940;4.034;2022-07-29T11:35:15;3.45;;;1.67;;
52266;SDS011;38223;50.940;4.034;2022-07-29T11:44:00;3.17;;;1.80;;
52266;SDS011;38223;50.940;4.034;2022-07-29T11:46:46;5.03;;;1.52;;
52266;SDS011;38223;50.940;4.034;2022-07-29T11:49:22;2.98;;;1.62;;
52266;SDS011;38223;50.940;4.034;2022-07-29T11:51:56;3.70;;;1.30;;
52266;SDS011;38223;50.940;4.034;2022-07-29T11:54:35;4.83;;;1.72;;
52266;SDS011;38223;50.940;4.034;2022-07-29T11:57:03;5.80;;;1.30;;
52266;SDS011;38223;50.940;4.034;2022-07-29T11:59:40;5.42;;;1.92;;
52266;SDS011;38223;50.940;4.034;2022-07-29T12:02:13;6.10;;;1.65;;
52266;SDS011;38223;50.940;4.034;2022-07-29T12:04:53;6.03;;;1.92;;
52266;SDS011;38223;50.940;4.034;2022-07-29T12:07:33;7.58;;;1.70;;
52266;SDS011;38223;50.940;4.034;2022-07-29T12:10:05;6.03;;;1.77;;
52266;SDS011;38223;50.940;4.034;2022-07-29T12:12:38;6.40;;;1.90;;
52266;SDS011;38223;50.940;4.034;2022-07-29T12:15:20;5.05;;;2.05;;
52266;SDS011;38223;50.940;4.034;2022-07-29T12:17:47;5.65;;;2.15;;
52266;SDS011;38223;50.940;4.034;2022-07-29T12:20:24;6.83;;;1.70;;
52266;SDS011;38223;50.940;4.034;2022-07-29T12:22:56;2.25;;;1.40;;
52266;SDS011;38223;50.940;4.034;2022-07-29T12:25:33;6.10;;;1.57;;
52266;SDS011;38223;50.940;4.034;2022-07-29T12:28:00;7.15;;;2.00;;
52266;SDS011;38223;50.940;4.034;2022-07-29T12:30:41;3.05;;;1.57;;
52266;SDS011;38223;50.940;4.034;2022-07-29T12:33:14;3.33;;;1.70;;
52266;SDS011;38223;50.940;4.034;2022-07-29T12:35:54;5.50;;;2.10;;
52266;SDS011;38223;50.940;4.034;2022-07-29T12:38:27;5.90;;;2.00;;
52266;SDS011;38223;50.940;4.034;2022-07-29T12:41:01;3.75;;;1.60;;
52266;SDS011;38223;50.940;4.034;2022-07-29T12:43:35;3.05;;;1.47;;
52266;SDS011;38223;50.940;4.034;2022-07-29T12:46:13;3.42;;;1.60;;
52266;SDS011;38223;50.940;4.034;2022-07-29T12:48:43;4.90;;;1.57;;
52266;SDS011;38223;50.940;4.034;2022-07-29T12:51:16;3.22;;;1.57;;
52266;SDS011;38223;50.940;4.034;2022-07-29T12:54:01;5.28;;;1.67;;
52266;SDS011;38223;50.940;4.034;2022-07-29T12:56:20;2.52;;;2.20;;
52266;SDS011;38223;50.940;4.034;2022-07-29T12:58:51;5.83;;;2.87;;
52266;SDS011;38223;50.940;4.034;2022-07-29T13:01:19;6.35;;;2.62;;
52266;SDS011;38223;50.940;4.034;2022-07-29T13:03:52;6.30;;;2.00;;
52266;SDS011;38223;50.940;4.034;2022-07-29T13:06:33;6.00;;;2.22;;
52266;SDS011;38223;50.940;4.034;2022-07-29T13:09:06;6.60;;;1.60;;
52266;SDS011;38223;50.940;4.034;2022-07-29T13:11:52;4.95;;;1.87;;
52266;SDS011;38223;50.940;4.034;2022-07-29T13:14:35;4.78;;;1.65;;
52266;SDS011;38223;50.940;4.034;2022-07-29T13:17:11;5.60;;;2.30;;
52266;SDS011;38223;50.940;4.034;2022-07-29T13:19:52;2.75;;;1.72;;
52266;SDS011;38223;50.940;4.034;2022-07-29T13:22:24;3.10;;;2.20;;
52266;SDS011;38223;50.940;4.034;2022-07-29T13:25:01;2.50;;;2.30;;
52266;SDS011;38223;50.940;4.034;2022-07-29T13:27:32;3.95;;;2.15;;
52266;SDS011;38223;50.940;4.034;2022-07-29T13:30:07;5.08;;;2.02;;
52266;SDS011;38223;50.940;4.034;2022-07-29T13:32:36;3.42;;;2.17;;
52266;SDS011;38223;50.940;4.034;2022-07-29T13:35:09;6.20;;;2.62;;
52266;SDS011;38223;50.940;4.034;2022-07-29T13:37:43;4.55;;;3.33;;
52266;SDS011;38223;50.940;4.034;2022-07-29T13:40:13;9.70;;;5.72;;
52266;SDS011;38223;50.940;4.034;2022-07-29T13:42:46;9.40;;;7.78;;
52266;SDS011;38223;50.940;4.034;2022-07-29T13:45:22;7.15;;;3.65;;
52266;SDS011;38223;50.940;4.034;2022-07-29T13:47:54;6.95;;;4.12;;
52266;SDS011;38223;50.940;4.034;2022-07-29T13:50:25;6.40;;;3.70;;
52266;SDS011;38223;50.940;4.034;2022-07-29T13:52:56;6.03;;;3.80;;
52266;SDS011;38223;50.940;4.034;2022-07-29T13:55:26;9.30;;;4.20;;
52266;SDS011;38223;50.940;4.034;2022-07-29T13:58:03;7.17;;;3.90;;
52266;SDS011;38223;50.940;4.034;2022-07-29T14:00:33;4.55;;;3.50;;
52266;SDS011;38223;50.940;4.034;2022-07-29T14:03:04;6.67;;;3.95;;
52266;SDS011;38223;50.940;4.034;2022-07-29T14:05:33;7.40;;;3.30;;
52266;SDS011;38223;50.940;4.034;2022-07-29T14:08:04;4.30;;;3.60;;
52266;SDS011;38223;50.940;4.034;2022-07-29T14:10:41;4.75;;;3.52;;
52266;SDS011;38223;50.940;4.034;2022-07-29T14:13:11;4.83;;;3.35;;
52266;SDS011;38223;50.940;4.034;2022-07-29T14:15:45;5.30;;;3.02;;
52266;SDS011;38223;50.940;4.034;2022-07-29T14:18:15;4.62;;;3.22;;
52266;SDS011;38223;50.940;4.034;2022-07-29T14:20:48;7.25;;;3.62;;
52266;SDS011;38223;50.940;4.034;2022-07-29T14:23:21;7.40;;;3.60;;
52266;SDS011;38223;50.940;4.034;2022-07-29T14:25:51;5.87;;;2.90;;
52266;SDS011;38223;50.940;4.034;2022-07-29T14:28:27;5.17;;;2.80;;
52266;SDS011;38223;50.940;4.034;2022-07-29T14:30:59;4.22;;;2.98;;
52266;SDS011;38223;50.940;4.034;2022-07-29T14:33:27;6.78;;;3.33;;
52266;SDS011;38223;50.940;4.034;2022-07-29T14:35:59;8.30;;;3.35;;
52266;SDS011;38223;50.940;4.034;2022-07-29T14:38:32;7.15;;;2.90;;
52266;SDS011;38223;50.940;4.034;2022-07-29T14:41:06;4.22;;;2.30;;
52266;SDS011;38223;50.940;4.034;2022-07-29T14:43:40;3.47;;;1.92;;
52266;SDS011;38223;50.940;4.034;2022-07-29T14:46:12;8.25;;;2.70;;
52266;SDS011;38223;50.940;4.034;2022-07-29T14:48:44;5.30;;;2.40;;
52266;SDS011;38223;50.940;4.034;2022-07-29T14:51:13;3.12;;;2.12;;
52266;SDS011;38223;50.940;4.034;2022-07-29T14:53:41;4.83;;;2.50;;
52266;SDS011;38223;50.940;4.034;2022-07-29T14:56:10;3.25;;;2.15;;
52266;SDS011;38223;50.940;4.034;2022-07-29T14:58:41;5.05;;;2.42;;
52266;SDS011;38223;50.940;4.034;2022-07-29T15:01:13;6.40;;;1.80;;
52266;SDS011;38223;50.940;4.034;2022-07-29T15:03:42;6.28;;;2.00;;
52266;SDS011;38223;50.940;4.034;2022-07-29T15:06:13;7.10;;;2.08;;
52266;SDS011;38223;50.940;4.034;2022-07-29T15:08:44;5.85;;;1.85;;
52266;SDS011;38223;50.940;4.034;2022-07-29T15:11:19;5.05;;;1.70;;
52266;SDS011;38223;50.940;4.034;2022-07-29T15:13:48;2.98;;;1.50;;
52266;SDS011;38223;50.940;4.034;2022-07-29T15:16:19;3.92;;;1.60;;
52266;SDS011;38223;50.940;4.034;2022-07-29T15:18:46;6.03;;;1.67;;
52266;SDS011;38223;50.940;4.034;2022-07-29T15:21:19;3.58;;;1.70;;
52266;SDS011;38223;50.940;4.034;2022-07-29T15:23:51;3.67;;;1.70;;
52266;SDS011;38223;50.940;4.034;2022-07-29T15:26:23;3.27;;;1.70;;
52266;SDS011;38223;50.940;4.034;2022-07-29T15:28:54;3.77;;;1.80;;
52266;SDS011;38223;50.940;4.034;2022-07-29T15:31:27;5.28;;;1.75;;
52266;SDS011;38223;50.940;4.034;2022-07-29T15:34:04;5.33;;;1.42;;
52266;SDS011;38223;50.940;4.034;2022-07-29T15:36:33;5.30;;;1.82;;
52266;SDS011;38223;50.940;4.034;2022-07-29T15:39:05;6.00;;;1.92;;
52266;SDS011;38223;50.940;4.034;2022-07-29T15:41:34;8.53;;;2.52;;
52266;SDS011;38223;50.940;4.034;2022-07-29T15:44:09;7.08;;;2.98;;
52266;SDS011;38223;50.940;4.034;2022-07-29T15:46:40;7.75;;;3.50;;
52266;SDS011;38223;50.940;4.034;2022-07-29T15:49:27;3.60;;;2.50;;
52266;SDS011;38223;50.940;4.034;2022-07-29T15:52:00;5.97;;;2.75;;
52266;SDS011;38223;50.940;4.034;2022-07-29T15:54:33;5.15;;;2.27;;
52266;SDS011;38223;50.940;4.034;2022-07-29T15:57:10;3.15;;;2.22;;
52266;SDS011;38223;50.940;4.034;2022-07-29T15:59:42;7.75;;;2.65;;
52266;SDS011;38223;50.940;4.034;2022-07-29T16:02:16;6.25;;;2.00;;
52266;SDS011;38223;50.940;4.034;2022-07-29T16:04:50;3.60;;;1.90;;
52266;SDS011;38223;50.940;4.034;2022-07-29T16:07:21;7.05;;;2.40;;
52266;SDS011;38223;50.940;4.034;2022-07-29T16:09:56;5.62;;;1.90;;
52266;SDS011;38223;50.940;4.034;2022-07-29T16:12:29;10.32;;;1.80;;
52266;SDS011;38223;50.940;4.034;2022-07-29T16:15:02;3.62;;;2.42;;